sensor_id;sensor_type;location;lat;lon;timestamp;P1;durP1;ratioP1;P2;durP2;ratioP2
17844;SDS011;9047;53.486;10.218;2023-01-28T00:01:20;5.43;;;2.30;;
17844;SDS011;9047;53.486;10.218;2023-01-28T00:03:48;5.45;;;2.17;;
17844;SDS011;9047;53.486;10.218;2023-01-28T00:06:18;4.15;;;2.05;;
17844;SDS011;9047;53.486;10.218;2023-01-28T00:08:45;3.85;;;2.00;;
17844;SDS011;9047;53.486;10.218;2023-01-28T00:11:13;2.95;;;1.80;;
17844;SDS011;9047;53.486;10.218;2023-01-28T00:13:49;4.85;;;2.10;;
17844;SDS011;9047;53.486;10.218;2023-01-28T00:16:18;4.65;;;2.00;;
17844;SDS011;9047;53.486;10.218;2023-01-28T00:18:51;2.65;;;1.70;;
17844;SDS011;9047;53.486;10.218;2023-01-28T00:21:19;5.18;;;2.03;;
17844;SDS011;9047;53.486;10.218;2023-01-28T00:23:47;4.57;;;1.90;;
17844;SDS011;9047;53.486;10.218;2023-01-28T00:26:18;2.53;;;1.40;;
17844;SDS011;9047;53.486;10.218;2023-01-28T00:28:45;4.35;;;2.35;;
17844;SDS011;9047;53.486;10.218;2023-01-28T00:31:13;4.35;;;1.48;;
17844;SDS011;9047;53.486;10.218;2023-01-28T00:33:42;4.18;;;1.40;;
17844;SDS011;9047;53.486;10.218;2023-01-28T00:36:10;2.90;;;1.33;;
17844;SDS011;9047;53.486;10.218;2023-01-28T00:38:39;1.90;;;1.30;;
17844;SDS011;9047;53.486;10.218;2023-01-28T00:41:07;3.00;;;1.58;;
17844;SDS011;9047;53.486;10.218;2023-01-28T00:43:36;5.85;;;1.48;;
17844;SDS011;9047;53.486;10.218;2023-01-28T00:46:04;2.00;;;1.45;;
17844;SDS011;9047;53.486;10.218;2023-01-28T00:48:31;3.47;;;1.75;;
17844;SDS011;9047;53.486;10.218;2023-01-28T00:51:01;2.60;;;1.45;;
17844;SDS011;9047;53.486;10.218;2023-01-28T00:53:28;2.75;;;1.60;;
17844;SDS011;9047;53.486;10.218;2023-01-28T00:55:58;3.90;;;1.50;;
17844;SDS011;9047;53.486;10.218;2023-01-28T00:58:25;3.50;;;1.50;;
17844;SDS011;9047;53.486;10.218;2023-01-28T01:00:53;2.42;;;1.40;;
17844;SDS011;9047;53.486;10.218;2023-01-28T01:03:20;4.18;;;1.50;;
17844;SDS011;9047;53.486;10.218;2023-01-28T01:05:47;3.65;;;1.60;;
17844;SDS011;9047;53.486;10.218;2023-01-28T01:08:14;4.22;;;1.75;;
17844;SDS011;9047;53.486;10.218;2023-01-28T01:10:41;3.72;;;1.73;;
17844;SDS011;9047;53.486;10.218;2023-01-28T01:13:10;4.38;;;1.58;;
17844;SDS011;9047;53.486;10.218;2023-01-28T01:15:38;2.13;;;1.40;;
17844;SDS011;9047;53.486;10.218;2023-01-28T01:18:12;2.15;;;1.67;;
17844;SDS011;9047;53.486;10.218;2023-01-28T01:20:40;3.85;;;1.70;;
17844;SDS011;9047;53.486;10.218;2023-01-28T01:23:09;4.47;;;1.67;;
17844;SDS011;9047;53.486;10.218;2023-01-28T01:25:38;2.22;;;1.48;;
17844;SDS011;9047;53.486;10.218;2023-01-28T01:28:06;3.25;;;1.50;;
17844;SDS011;9047;53.486;10.218;2023-01-28T01:30:34;3.17;;;1.70;;
17844;SDS011;9047;53.486;10.218;2023-01-28T01:33:01;2.95;;;1.90;;
17844;SDS011;9047;53.486;10.218;2023-01-28T01:35:29;2.75;;;1.83;;
17844;SDS011;9047;53.486;10.218;2023-01-28T01:37:56;3.08;;;1.80;;
17844;SDS011;9047;53.486;10.218;2023-01-28T01:40:23;4.20;;;1.80;;
17844;SDS011;9047;53.486;10.218;2023-01-28T01:42:50;3.08;;;1.83;;
17844;SDS011;9047;53.486;10.218;2023-01-28T01:45:17;3.03;;;1.70;;
17844;SDS011;9047;53.486;10.218;2023-01-28T01:47:46;3.03;;;1.80;;
17844;SDS011;9047;53.486;10.218;2023-01-28T01:50:35;1.60;;;1.48;;
17844;SDS011;9047;53.486;10.218;2023-01-28T01:53:09;3.08;;;1.65;;
17844;SDS011;9047;53.486;10.218;2023-01-28T01:55:40;4.22;;;1.67;;
17844;SDS011;9047;53.486;10.218;2023-01-28T01:58:10;2.42;;;1.52;;
17844;SDS011;9047;53.486;10.218;2023-01-28T02:00:39;3.13;;;1.58;;
17844;SDS011;9047;53.486;10.218;2023-01-28T02:03:09;2.08;;;1.55;;
17844;SDS011;9047;53.486;10.218;2023-01-28T02:05:37;2.65;;;1.50;;
17844;SDS011;9047;53.486;10.218;2023-01-28T02:08:05;2.92;;;1.60;;
17844;SDS011;9047;53.486;10.218;2023-01-28T02:10:48;3.85;;;1.98;;
17844;SDS011;9047;53.486;10.218;2023-01-28T02:13:18;3.25;;;1.50;;
17844;SDS011;9047;53.486;10.218;2023-01-28T02:15:48;1.90;;;1.40;;
17844;SDS011;9047;53.486;10.218;2023-01-28T02:18:17;2.45;;;1.48;;
17844;SDS011;9047;53.486;10.218;2023-01-28T02:20:50;2.60;;;1.33;;
17844;SDS011;9047;53.486;10.218;2023-01-28T02:23:39;4.18;;;1.50;;
17844;SDS011;9047;53.486;10.218;2023-01-28T02:26:22;4.18;;;1.55;;
17844;SDS011;9047;53.486;10.218;2023-01-28T02:29:01;4.95;;;1.63;;
17844;SDS011;9047;53.486;10.218;2023-01-28T02:31:37;3.70;;;1.50;;
17844;SDS011;9047;53.486;10.218;2023-01-28T02:34:10;3.80;;;1.63;;
17844;SDS011;9047;53.486;10.218;2023-01-28T02:36:41;3.53;;;1.60;;
17844;SDS011;9047;53.486;10.218;2023-01-28T02:39:14;3.63;;;1.75;;
17844;SDS011;9047;53.486;10.218;2023-01-28T02:41:45;3.22;;;1.70;;
17844;SDS011;9047;53.486;10.218;2023-01-28T02:44:18;3.50;;;1.80;;
17844;SDS011;9047;53.486;10.218;2023-01-28T02:46:45;3.70;;;1.80;;
17844;SDS011;9047;53.486;10.218;2023-01-28T02:49:32;2.55;;;1.73;;
17844;SDS011;9047;53.486;10.218;2023-01-28T02:55:23;2.85;;;1.60;;
17844;SDS011;9047;53.486;10.218;2023-01-28T02:57:57;2.92;;;2.05;;
17844;SDS011;9047;53.486;10.218;2023-01-28T03:00:33;3.67;;;2.15;;
17844;SDS011;9047;53.486;10.218;2023-01-28T03:03:11;3.88;;;2.15;;
17844;SDS011;9047;53.486;10.218;2023-01-28T03:05:42;5.82;;;2.40;;
17844;SDS011;9047;53.486;10.218;2023-01-28T03:08:28;3.10;;;1.83;;
17844;SDS011;9047;53.486;10.218;2023-01-28T03:11:16;3.70;;;1.80;;
17844;SDS011;9047;53.486;10.218;2023-01-28T03:14:00;4.50;;;2.30;;
17844;SDS011;9047;53.486;10.218;2023-01-28T03:16:47;5.68;;;3.28;;
17844;SDS011;9047;53.486;10.218;2023-01-28T03:19:33;5.07;;;3.00;;
17844;SDS011;9047;53.486;10.218;2023-01-28T03:22:18;5.20;;;3.15;;
17844;SDS011;9047;53.486;10.218;2023-01-28T03:25:03;5.93;;;2.58;;
17844;SDS011;9047;53.486;10.218;2023-01-28T03:27:49;2.80;;;2.00;;
17844;SDS011;9047;53.486;10.218;2023-01-28T03:30:39;5.85;;;2.25;;
17844;SDS011;9047;53.486;10.218;2023-01-28T03:33:29;3.67;;;2.15;;
17844;SDS011;9047;53.486;10.218;2023-01-28T03:36:16;3.83;;;2.13;;
17844;SDS011;9047;53.486;10.218;2023-01-28T03:39:00;4.65;;;2.00;;
17844;SDS011;9047;53.486;10.218;2023-01-28T03:41:27;4.13;;;2.00;;
17844;SDS011;9047;53.486;10.218;2023-01-28T03:43:54;2.97;;;1.92;;
17844;SDS011;9047;53.486;10.218;2023-01-28T03:46:22;3.25;;;2.00;;
17844;SDS011;9047;53.486;10.218;2023-01-28T03:48:53;5.28;;;2.17;;
17844;SDS011;9047;53.486;10.218;2023-01-28T03:51:20;4.57;;;2.20;;
17844;SDS011;9047;53.486;10.218;2023-01-28T03:53:47;2.42;;;1.90;;
17844;SDS011;9047;53.486;10.218;2023-01-28T03:56:16;3.10;;;2.00;;
17844;SDS011;9047;53.486;10.218;2023-01-28T03:58:43;2.83;;;1.70;;
17844;SDS011;9047;53.486;10.218;2023-01-28T04:01:19;5.00;;;1.95;;
17844;SDS011;9047;53.486;10.218;2023-01-28T04:03:46;4.22;;;1.90;;
17844;SDS011;9047;53.486;10.218;2023-01-28T04:06:17;5.05;;;1.83;;
17844;SDS011;9047;53.486;10.218;2023-01-28T04:08:44;3.10;;;1.67;;
17844;SDS011;9047;53.486;10.218;2023-01-28T04:11:16;4.45;;;1.95;;
17844;SDS011;9047;53.486;10.218;2023-01-28T04:13:45;3.47;;;1.88;;
17844;SDS011;9047;53.486;10.218;2023-01-28T04:16:14;3.05;;;1.90;;
17844;SDS011;9047;53.486;10.218;2023-01-28T04:18:42;4.95;;;2.05;;
17844;SDS011;9047;53.486;10.218;2023-01-28T04:21:09;4.22;;;2.38;;
17844;SDS011;9047;53.486;10.218;2023-01-28T04:23:38;4.13;;;2.40;;
17844;SDS011;9047;53.486;10.218;2023-01-28T04:26:05;3.50;;;2.50;;
17844;SDS011;9047;53.486;10.218;2023-01-28T04:28:32;4.38;;;2.40;;
17844;SDS011;9047;53.486;10.218;2023-01-28T04:30:59;4.18;;;2.47;;
17844;SDS011;9047;53.486;10.218;2023-01-28T04:33:26;3.38;;;2.50;;
17844;SDS011;9047;53.486;10.218;2023-01-28T04:35:53;5.18;;;2.38;;
17844;SDS011;9047;53.486;10.218;2023-01-28T04:38:20;3.92;;;2.15;;
17844;SDS011;9047;53.486;10.218;2023-01-28T04:40:51;4.15;;;2.38;;
17844;SDS011;9047;53.486;10.218;2023-01-28T04:43:19;4.93;;;2.35;;
17844;SDS011;9047;53.486;10.218;2023-01-28T04:45:46;5.35;;;2.40;;
17844;SDS011;9047;53.486;10.218;2023-01-28T04:48:13;3.30;;;2.28;;
17844;SDS011;9047;53.486;10.218;2023-01-28T04:50:41;4.10;;;2.25;;
17844;SDS011;9047;53.486;10.218;2023-01-28T04:53:08;4.20;;;2.10;;
17844;SDS011;9047;53.486;10.218;2023-01-28T04:55:35;3.60;;;2.65;;
17844;SDS011;9047;53.486;10.218;2023-01-28T04:58:04;3.63;;;2.13;;
17844;SDS011;9047;53.486;10.218;2023-01-28T05:00:31;3.60;;;2.50;;
17844;SDS011;9047;53.486;10.218;2023-01-28T05:02:59;4.38;;;2.47;;
17844;SDS011;9047;53.486;10.218;2023-01-28T05:05:26;4.30;;;2.80;;
17844;SDS011;9047;53.486;10.218;2023-01-28T05:07:56;6.05;;;2.70;;
17844;SDS011;9047;53.486;10.218;2023-01-28T05:10:32;4.18;;;2.78;;
17844;SDS011;9047;53.486;10.218;2023-01-28T05:13:04;5.63;;;2.90;;
17844;SDS011;9047;53.486;10.218;2023-01-28T05:15:34;5.55;;;2.65;;
17844;SDS011;9047;53.486;10.218;2023-01-28T05:18:02;4.75;;;2.60;;
17844;SDS011;9047;53.486;10.218;2023-01-28T05:20:30;4.75;;;2.50;;
17844;SDS011;9047;53.486;10.218;2023-01-28T05:22:57;6.05;;;2.83;;
17844;SDS011;9047;53.486;10.218;2023-01-28T05:25:38;5.05;;;3.00;;
17844;SDS011;9047;53.486;10.218;2023-01-28T05:28:08;3.30;;;2.40;;
17844;SDS011;9047;53.486;10.218;2023-01-28T05:30:36;4.30;;;2.60;;
17844;SDS011;9047;53.486;10.218;2023-01-28T05:33:05;3.65;;;2.60;;
17844;SDS011;9047;53.486;10.218;2023-01-28T05:35:32;4.80;;;2.60;;
17844;SDS011;9047;53.486;10.218;2023-01-28T05:38:00;5.35;;;2.80;;
17844;SDS011;9047;53.486;10.218;2023-01-28T05:40:36;4.38;;;2.50;;
17844;SDS011;9047;53.486;10.218;2023-01-28T05:43:11;3.25;;;2.42;;
17844;SDS011;9047;53.486;10.218;2023-01-28T05:45:40;3.88;;;2.60;;
17844;SDS011;9047;53.486;10.218;2023-01-28T05:48:09;6.30;;;2.75;;
17844;SDS011;9047;53.486;10.218;2023-01-28T05:50:36;5.53;;;2.80;;
17844;SDS011;9047;53.486;10.218;2023-01-28T05:53:06;5.10;;;2.67;;
17844;SDS011;9047;53.486;10.218;2023-01-28T05:55:35;4.20;;;3.05;;
17844;SDS011;9047;53.486;10.218;2023-01-28T05:58:03;4.47;;;3.03;;
17844;SDS011;9047;53.486;10.218;2023-01-28T06:00:31;4.18;;;2.90;;
17844;SDS011;9047;53.486;10.218;2023-01-28T06:03:01;5.22;;;2.97;;
17844;SDS011;9047;53.486;10.218;2023-01-28T06:05:29;5.43;;;3.30;;
17844;SDS011;9047;53.486;10.218;2023-01-28T06:07:56;6.03;;;3.30;;
17844;SDS011;9047;53.486;10.218;2023-01-28T06:10:28;4.35;;;3.17;;
17844;SDS011;9047;53.486;10.218;2023-01-28T06:13:00;4.70;;;3.28;;
17844;SDS011;9047;53.486;10.218;2023-01-28T06:15:28;6.45;;;3.28;;
17844;SDS011;9047;53.486;10.218;2023-01-28T06:17:58;5.15;;;3.00;;
17844;SDS011;9047;53.486;10.218;2023-01-28T06:20:25;5.32;;;3.20;;
17844;SDS011;9047;53.486;10.218;2023-01-28T06:22:52;7.15;;;3.45;;
17844;SDS011;9047;53.486;10.218;2023-01-28T06:25:20;7.15;;;3.50;;
17844;SDS011;9047;53.486;10.218;2023-01-28T06:27:50;7.28;;;3.50;;
17844;SDS011;9047;53.486;10.218;2023-01-28T06:30:18;4.93;;;3.35;;
17844;SDS011;9047;53.486;10.218;2023-01-28T06:32:52;5.70;;;3.47;;
17844;SDS011;9047;53.486;10.218;2023-01-28T06:35:21;7.45;;;3.50;;
17844;SDS011;9047;53.486;10.218;2023-01-28T06:37:49;6.20;;;3.65;;
17844;SDS011;9047;53.486;10.218;2023-01-28T06:40:21;5.03;;;3.17;;
17844;SDS011;9047;53.486;10.218;2023-01-28T06:42:51;4.03;;;3.03;;
17844;SDS011;9047;53.486;10.218;2023-01-28T06:45:19;6.30;;;3.38;;
17844;SDS011;9047;53.486;10.218;2023-01-28T06:47:48;6.85;;;3.30;;
17844;SDS011;9047;53.486;10.218;2023-01-28T06:50:23;6.03;;;3.40;;
17844;SDS011;9047;53.486;10.218;2023-01-28T06:52:52;9.52;;;3.40;;
17844;SDS011;9047;53.486;10.218;2023-01-28T06:55:20;4.80;;;3.30;;
17844;SDS011;9047;53.486;10.218;2023-01-28T06:57:48;5.75;;;3.50;;
17844;SDS011;9047;53.486;10.218;2023-01-28T07:00:15;7.55;;;4.00;;
17844;SDS011;9047;53.486;10.218;2023-01-28T07:02:56;6.00;;;3.38;;
17844;SDS011;9047;53.486;10.218;2023-01-28T07:05:26;6.15;;;3.40;;
17844;SDS011;9047;53.486;10.218;2023-01-28T07:07:56;4.25;;;3.10;;
17844;SDS011;9047;53.486;10.218;2023-01-28T07:10:24;6.38;;;3.15;;
17844;SDS011;9047;53.486;10.218;2023-01-28T07:12:52;5.88;;;3.40;;
17844;SDS011;9047;53.486;10.218;2023-01-28T07:15:32;5.53;;;3.35;;
17844;SDS011;9047;53.486;10.218;2023-01-28T07:18:00;5.65;;;3.50;;
17844;SDS011;9047;53.486;10.218;2023-01-28T07:20:32;6.18;;;3.20;;
17844;SDS011;9047;53.486;10.218;2023-01-28T07:23:02;5.43;;;3.35;;
17844;SDS011;9047;53.486;10.218;2023-01-28T07:25:33;8.65;;;3.25;;
17844;SDS011;9047;53.486;10.218;2023-01-28T07:28:01;5.78;;;3.60;;
17844;SDS011;9047;53.486;10.218;2023-01-28T07:30:30;5.15;;;3.08;;
17844;SDS011;9047;53.486;10.218;2023-01-28T07:32:58;6.63;;;3.35;;
17844;SDS011;9047;53.486;10.218;2023-01-28T07:35:26;6.32;;;3.17;;
17844;SDS011;9047;53.486;10.218;2023-01-28T07:37:59;6.07;;;3.40;;
17844;SDS011;9047;53.486;10.218;2023-01-28T07:40:31;6.90;;;3.40;;
17844;SDS011;9047;53.486;10.218;2023-01-28T07:42:58;6.75;;;3.13;;
17844;SDS011;9047;53.486;10.218;2023-01-28T07:45:36;4.20;;;3.20;;
17844;SDS011;9047;53.486;10.218;2023-01-28T07:48:04;4.18;;;3.13;;
17844;SDS011;9047;53.486;10.218;2023-01-28T07:50:33;5.75;;;3.33;;
17844;SDS011;9047;53.486;10.218;2023-01-28T07:53:03;3.80;;;3.00;;
17844;SDS011;9047;53.486;10.218;2023-01-28T07:55:33;5.65;;;3.40;;
17844;SDS011;9047;53.486;10.218;2023-01-28T07:58:01;6.38;;;3.08;;
17844;SDS011;9047;53.486;10.218;2023-01-28T08:00:31;5.63;;;3.10;;
17844;SDS011;9047;53.486;10.218;2023-01-28T08:03:01;4.10;;;3.03;;
17844;SDS011;9047;53.486;10.218;2023-01-28T08:05:32;5.70;;;3.20;;
17844;SDS011;9047;53.486;10.218;2023-01-28T08:08:07;5.78;;;3.17;;
17844;SDS011;9047;53.486;10.218;2023-01-28T08:10:35;6.35;;;3.70;;
17844;SDS011;9047;53.486;10.218;2023-01-28T08:13:02;6.40;;;3.63;;
17844;SDS011;9047;53.486;10.218;2023-01-28T08:15:31;6.45;;;3.92;;
17844;SDS011;9047;53.486;10.218;2023-01-28T08:18:03;5.60;;;4.03;;
17844;SDS011;9047;53.486;10.218;2023-01-28T08:20:31;9.45;;;4.18;;
17844;SDS011;9047;53.486;10.218;2023-01-28T08:23:06;7.13;;;4.47;;
17844;SDS011;9047;53.486;10.218;2023-01-28T08:25:36;8.23;;;4.68;;
17844;SDS011;9047;53.486;10.218;2023-01-28T08:28:03;9.20;;;4.72;;
17844;SDS011;9047;53.486;10.218;2023-01-28T08:30:32;11.77;;;4.95;;
17844;SDS011;9047;53.486;10.218;2023-01-28T08:32:59;7.88;;;4.75;;
17844;SDS011;9047;53.486;10.218;2023-01-28T08:35:27;6.10;;;4.53;;
17844;SDS011;9047;53.486;10.218;2023-01-28T08:37:57;8.18;;;4.75;;
17844;SDS011;9047;53.486;10.218;2023-01-28T08:40:26;7.68;;;5.25;;
17844;SDS011;9047;53.486;10.218;2023-01-28T08:42:53;8.40;;;4.95;;
17844;SDS011;9047;53.486;10.218;2023-01-28T08:45:21;8.07;;;5.03;;
17844;SDS011;9047;53.486;10.218;2023-01-28T08:47:50;7.40;;;4.72;;
17844;SDS011;9047;53.486;10.218;2023-01-28T08:50:22;8.07;;;5.18;;
17844;SDS011;9047;53.486;10.218;2023-01-28T08:52:53;8.10;;;5.53;;
17844;SDS011;9047;53.486;10.218;2023-01-28T08:55:21;10.73;;;5.95;;
17844;SDS011;9047;53.486;10.218;2023-01-28T08:57:49;11.52;;;6.20;;
17844;SDS011;9047;53.486;10.218;2023-01-28T09:00:17;10.18;;;5.72;;
17844;SDS011;9047;53.486;10.218;2023-01-28T09:02:44;10.75;;;6.50;;
17844;SDS011;9047;53.486;10.218;2023-01-28T09:05:14;10.30;;;5.30;;
17844;SDS011;9047;53.486;10.218;2023-01-28T09:07:42;9.55;;;6.05;;
17844;SDS011;9047;53.486;10.218;2023-01-28T09:10:09;10.98;;;7.15;;
17844;SDS011;9047;53.486;10.218;2023-01-28T09:12:37;10.10;;;7.05;;
17844;SDS011;9047;53.486;10.218;2023-01-28T09:15:08;12.82;;;6.55;;
17844;SDS011;9047;53.486;10.218;2023-01-28T09:17:35;12.10;;;7.40;;
17844;SDS011;9047;53.486;10.218;2023-01-28T09:20:04;12.27;;;7.57;;
17844;SDS011;9047;53.486;10.218;2023-01-28T09:22:32;12.23;;;7.60;;
17844;SDS011;9047;53.486;10.218;2023-01-28T09:24:59;13.68;;;8.30;;
17844;SDS011;9047;53.486;10.218;2023-01-28T09:27:28;15.23;;;7.95;;
17844;SDS011;9047;53.486;10.218;2023-01-28T09:29:56;11.90;;;8.18;;
17844;SDS011;9047;53.486;10.218;2023-01-28T09:32:30;15.52;;;8.63;;
17844;SDS011;9047;53.486;10.218;2023-01-28T09:34:57;14.60;;;9.00;;
17844;SDS011;9047;53.486;10.218;2023-01-28T09:37:24;13.48;;;8.85;;
17844;SDS011;9047;53.486;10.218;2023-01-28T09:39:51;12.13;;;8.52;;
17844;SDS011;9047;53.486;10.218;2023-01-28T09:42:22;15.82;;;8.75;;
17844;SDS011;9047;53.486;10.218;2023-01-28T09:45:01;14.55;;;9.75;;
17844;SDS011;9047;53.486;10.218;2023-01-28T09:47:36;12.65;;;8.45;;
17844;SDS011;9047;53.486;10.218;2023-01-28T09:50:07;12.02;;;8.95;;
17844;SDS011;9047;53.486;10.218;2023-01-28T09:52:39;15.13;;;9.43;;
17844;SDS011;9047;53.486;10.218;2023-01-28T09:55:11;13.27;;;9.07;;
17844;SDS011;9047;53.486;10.218;2023-01-28T09:57:42;14.00;;;9.32;;
17844;SDS011;9047;53.486;10.218;2023-01-28T10:00:15;14.35;;;9.23;;
17844;SDS011;9047;53.486;10.218;2023-01-28T10:02:50;14.07;;;9.75;;
17844;SDS011;9047;53.486;10.218;2023-01-28T10:05:27;14.77;;;9.25;;
17844;SDS011;9047;53.486;10.218;2023-01-28T10:08:04;12.73;;;8.95;;
17844;SDS011;9047;53.486;10.218;2023-01-28T10:10:46;12.75;;;8.95;;
17844;SDS011;9047;53.486;10.218;2023-01-28T10:13:19;13.07;;;8.70;;
17844;SDS011;9047;53.486;10.218;2023-01-28T10:15:58;14.43;;;9.15;;
17844;SDS011;9047;53.486;10.218;2023-01-28T10:18:34;12.70;;;8.25;;
17844;SDS011;9047;53.486;10.218;2023-01-28T10:21:06;11.23;;;7.53;;
17844;SDS011;9047;53.486;10.218;2023-01-28T10:23:40;11.25;;;7.80;;
17844;SDS011;9047;53.486;10.218;2023-01-28T10:26:16;12.18;;;7.68;;
17844;SDS011;9047;53.486;10.218;2023-01-28T10:28:49;7.72;;;6.40;;
17844;SDS011;9047;53.486;10.218;2023-01-28T10:31:21;12.68;;;7.75;;
17844;SDS011;9047;53.486;10.218;2023-01-28T10:33:50;11.15;;;7.13;;
17844;SDS011;9047;53.486;10.218;2023-01-28T10:36:16;11.38;;;7.38;;
17844;SDS011;9047;53.486;10.218;2023-01-28T10:38:44;12.68;;;6.50;;
17844;SDS011;9047;53.486;10.218;2023-01-28T10:41:11;11.95;;;7.47;;
17844;SDS011;9047;53.486;10.218;2023-01-28T10:43:45;13.63;;;7.68;;
17844;SDS011;9047;53.486;10.218;2023-01-28T10:46:15;11.23;;;7.45;;
17844;SDS011;9047;53.486;10.218;2023-01-28T10:48:45;10.18;;;7.43;;
17844;SDS011;9047;53.486;10.218;2023-01-28T10:51:15;12.63;;;7.32;;
17844;SDS011;9047;53.486;10.218;2023-01-28T10:53:44;10.25;;;7.78;;
17844;SDS011;9047;53.486;10.218;2023-01-28T10:56:12;11.32;;;7.50;;
17844;SDS011;9047;53.486;10.218;2023-01-28T10:58:49;10.55;;;7.20;;
17844;SDS011;9047;53.486;10.218;2023-01-28T11:01:25;8.90;;;7.10;;
17844;SDS011;9047;53.486;10.218;2023-01-28T11:04:03;9.80;;;7.22;;
17844;SDS011;9047;53.486;10.218;2023-01-28T11:06:32;10.05;;;7.20;;
17844;SDS011;9047;53.486;10.218;2023-01-28T11:08:59;9.80;;;7.22;;
17844;SDS011;9047;53.486;10.218;2023-01-28T11:11:26;11.40;;;7.35;;
17844;SDS011;9047;53.486;10.218;2023-01-28T11:13:54;10.05;;;7.53;;
17844;SDS011;9047;53.486;10.218;2023-01-28T11:16:22;10.73;;;7.15;;
17844;SDS011;9047;53.486;10.218;2023-01-28T11:18:51;10.13;;;7.10;;
17844;SDS011;9047;53.486;10.218;2023-01-28T11:21:20;11.27;;;6.90;;
17844;SDS011;9047;53.486;10.218;2023-01-28T11:23:52;10.82;;;7.20;;
17844;SDS011;9047;53.486;10.218;2023-01-28T11:26:22;10.90;;;7.00;;
17844;SDS011;9047;53.486;10.218;2023-01-28T11:28:52;8.82;;;6.18;;
17844;SDS011;9047;53.486;10.218;2023-01-28T11:31:21;8.38;;;6.68;;
17844;SDS011;9047;53.486;10.218;2023-01-28T11:33:49;12.05;;;7.10;;
17844;SDS011;9047;53.486;10.218;2023-01-28T11:36:21;10.32;;;6.75;;
17844;SDS011;9047;53.486;10.218;2023-01-28T11:38:52;9.23;;;6.80;;
17844;SDS011;9047;53.486;10.218;2023-01-28T11:41:23;10.80;;;6.93;;
17844;SDS011;9047;53.486;10.218;2023-01-28T11:43:52;11.15;;;6.78;;
17844;SDS011;9047;53.486;10.218;2023-01-28T11:46:24;10.13;;;6.53;;
17844;SDS011;9047;53.486;10.218;2023-01-28T11:49:08;8.73;;;6.57;;
17844;SDS011;9047;53.486;10.218;2023-01-28T11:51:43;8.98;;;6.93;;
17844;SDS011;9047;53.486;10.218;2023-01-28T11:54:25;8.40;;;6.32;;
17844;SDS011;9047;53.486;10.218;2023-01-28T11:57:18;8.98;;;6.10;;
17844;SDS011;9047;53.486;10.218;2023-01-28T12:03:00;7.32;;;6.18;;
17844;SDS011;9047;53.486;10.218;2023-01-28T12:06:19;9.32;;;5.97;;
17844;SDS011;9047;53.486;10.218;2023-01-28T12:08:57;7.18;;;5.85;;
17844;SDS011;9047;53.486;10.218;2023-01-28T12:11:35;8.90;;;6.05;;
17844;SDS011;9047;53.486;10.218;2023-01-28T12:14:31;9.40;;;5.82;;
17844;SDS011;9047;53.486;10.218;2023-01-28T12:17:09;10.65;;;6.22;;
17844;SDS011;9047;53.486;10.218;2023-01-28T12:19:52;8.52;;;5.72;;
17844;SDS011;9047;53.486;10.218;2023-01-28T12:22:45;7.13;;;5.25;;
17844;SDS011;9047;53.486;10.218;2023-01-28T12:25:32;9.68;;;6.03;;
17844;SDS011;9047;53.486;10.218;2023-01-28T12:28:17;11.65;;;6.47;;
17844;SDS011;9047;53.486;10.218;2023-01-28T12:31:03;13.15;;;6.68;;
17844;SDS011;9047;53.486;10.218;2023-01-28T12:33:47;9.20;;;6.53;;
17844;SDS011;9047;53.486;10.218;2023-01-28T12:36:29;11.90;;;6.78;;
17844;SDS011;9047;53.486;10.218;2023-01-28T12:39:09;11.00;;;5.97;;
17844;SDS011;9047;53.486;10.218;2023-01-28T12:41:46;11.30;;;6.07;;
17844;SDS011;9047;53.486;10.218;2023-01-28T12:44:21;9.88;;;6.60;;
17844;SDS011;9047;53.486;10.218;2023-01-28T12:46:52;10.40;;;6.05;;
17844;SDS011;9047;53.486;10.218;2023-01-28T12:49:24;9.25;;;6.10;;
17844;SDS011;9047;53.486;10.218;2023-01-28T12:51:59;10.05;;;5.82;;
17844;SDS011;9047;53.486;10.218;2023-01-28T12:54:34;10.40;;;6.20;;
17844;SDS011;9047;53.486;10.218;2023-01-28T12:57:12;8.77;;;6.10;;
17844;SDS011;9047;53.486;10.218;2023-01-28T12:59:57;8.38;;;5.65;;
17844;SDS011;9047;53.486;10.218;2023-01-28T13:02:34;9.70;;;5.95;;
17844;SDS011;9047;53.486;10.218;2023-01-28T13:05:05;8.73;;;5.93;;
17844;SDS011;9047;53.486;10.218;2023-01-28T13:07:37;9.95;;;6.45;;
17844;SDS011;9047;53.486;10.218;2023-01-28T13:10:10;10.48;;;6.63;;
17844;SDS011;9047;53.486;10.218;2023-01-28T13:12:44;9.20;;;5.65;;
17844;SDS011;9047;53.486;10.218;2023-01-28T13:15:15;8.73;;;6.75;;
17844;SDS011;9047;53.486;10.218;2023-01-28T13:24:02;9.55;;;6.18;;
17844;SDS011;9047;53.486;10.218;2023-01-28T13:26:36;10.10;;;6.75;;
17844;SDS011;9047;53.486;10.218;2023-01-28T13:29:16;9.07;;;6.15;;
17844;SDS011;9047;53.486;10.218;2023-01-28T13:31:56;9.88;;;6.05;;
17844;SDS011;9047;53.486;10.218;2023-01-28T13:34:25;8.73;;;6.18;;
17844;SDS011;9047;53.486;10.218;2023-01-28T13:36:58;12.10;;;6.18;;
17844;SDS011;9047;53.486;10.218;2023-01-28T13:39:29;8.25;;;5.28;;
17844;SDS011;9047;53.486;10.218;2023-01-28T13:42:09;9.52;;;6.70;;
17844;SDS011;9047;53.486;10.218;2023-01-28T13:44:46;8.82;;;5.75;;
17844;SDS011;9047;53.486;10.218;2023-01-28T13:47:19;9.60;;;6.20;;
17844;SDS011;9047;53.486;10.218;2023-01-28T13:49:52;10.90;;;6.38;;
17844;SDS011;9047;53.486;10.218;2023-01-28T13:52:25;7.75;;;5.93;;
17844;SDS011;9047;53.486;10.218;2023-01-28T13:54:55;10.15;;;6.20;;
17844;SDS011;9047;53.486;10.218;2023-01-28T13:57:44;10.10;;;6.32;;
17844;SDS011;9047;53.486;10.218;2023-01-28T14:00:29;10.85;;;6.60;;
17844;SDS011;9047;53.486;10.218;2023-01-28T14:08:55;11.77;;;7.20;;
17844;SDS011;9047;53.486;10.218;2023-01-28T14:11:51;11.65;;;7.32;;
17844;SDS011;9047;53.486;10.218;2023-01-28T14:14:57;10.45;;;7.25;;
17844;SDS011;9047;53.486;10.218;2023-01-28T14:17:38;14.52;;;8.30;;
17844;SDS011;9047;53.486;10.218;2023-01-28T14:20:12;15.55;;;8.88;;
17844;SDS011;9047;53.486;10.218;2023-01-28T14:22:44;12.13;;;8.43;;
17844;SDS011;9047;53.486;10.218;2023-01-28T14:25:11;14.43;;;8.50;;
17844;SDS011;9047;53.486;10.218;2023-01-28T14:27:41;15.77;;;9.23;;
17844;SDS011;9047;53.486;10.218;2023-01-28T14:30:15;14.43;;;8.75;;
17844;SDS011;9047;53.486;10.218;2023-01-28T14:32:49;12.35;;;8.75;;
17844;SDS011;9047;53.486;10.218;2023-01-28T14:35:21;13.27;;;8.88;;
17844;SDS011;9047;53.486;10.218;2023-01-28T14:37:55;14.55;;;9.27;;
17844;SDS011;9047;53.486;10.218;2023-01-28T14:40:24;17.77;;;10.30;;
17844;SDS011;9047;53.486;10.218;2023-01-28T14:42:54;19.15;;;10.05;;
17844;SDS011;9047;53.486;10.218;2023-01-28T14:45:27;13.50;;;9.50;;
17844;SDS011;9047;53.486;10.218;2023-01-28T14:48:19;14.48;;;10.50;;
17844;SDS011;9047;53.486;10.218;2023-01-28T14:51:01;28.30;;;15.48;;
17844;SDS011;9047;53.486;10.218;2023-01-28T14:53:45;18.75;;;10.95;;
17844;SDS011;9047;53.486;10.218;2023-01-28T14:56:33;16.85;;;10.63;;
17844;SDS011;9047;53.486;10.218;2023-01-28T14:59:12;16.08;;;10.85;;
17844;SDS011;9047;53.486;10.218;2023-01-28T15:01:44;18.35;;;11.40;;
17844;SDS011;9047;53.486;10.218;2023-01-28T15:04:22;16.27;;;11.13;;
17844;SDS011;9047;53.486;10.218;2023-01-28T15:06:50;20.08;;;11.10;;
17844;SDS011;9047;53.486;10.218;2023-01-28T15:09:22;18.73;;;11.63;;
17844;SDS011;9047;53.486;10.218;2023-01-28T15:11:54;19.58;;;13.23;;
17844;SDS011;9047;53.486;10.218;2023-01-28T15:14:25;19.67;;;11.98;;
17844;SDS011;9047;53.486;10.218;2023-01-28T15:16:54;21.00;;;12.75;;
17844;SDS011;9047;53.486;10.218;2023-01-28T15:19:24;22.70;;;12.27;;
17844;SDS011;9047;53.486;10.218;2023-01-28T15:21:54;18.52;;;11.55;;
17844;SDS011;9047;53.486;10.218;2023-01-28T15:24:27;18.98;;;12.10;;
17844;SDS011;9047;53.486;10.218;2023-01-28T15:26:56;32.90;;;17.92;;
17844;SDS011;9047;53.486;10.218;2023-01-28T15:29:24;20.02;;;12.60;;
17844;SDS011;9047;53.486;10.218;2023-01-28T15:31:56;31.65;;;18.02;;